sensor_id;sensor_type;location;lat;lon;timestamp;P1;durP1;ratioP1;P2;durP2;ratioP2
4232;SDS011;2130;48.472;11.934;2023-11-18T00:00:33;7.80;;;2.20;;
4232;SDS011;2130;48.472;11.934;2023-11-18T00:03:01;7.83;;;2.10;;
4232;SDS011;2130;48.472;11.934;2023-11-18T00:05:30;7.63;;;1.73;;
4232;SDS011;2130;48.472;11.934;2023-11-18T00:07:59;8.37;;;1.80;;
4232;SDS011;2130;48.472;11.934;2023-11-18T00:10:27;8.90;;;2.00;;
4232;SDS011;2130;48.472;11.934;2023-11-18T00:12:57;8.60;;;2.53;;
4232;SDS011;2130;48.472;11.934;2023-11-18T00:15:31;8.70;;;2.23;;
4232;SDS011;2130;48.472;11.934;2023-11-18T00:18:01;8.60;;;2.50;;
4232;SDS011;2130;48.472;11.934;2023-11-18T00:20:30;7.70;;;1.97;;
4232;SDS011;2130;48.472;11.934;2023-11-18T00:22:58;8.60;;;2.90;;
4232;SDS011;2130;48.472;11.934;2023-11-18T00:25:28;10.40;;;2.07;;
4232;SDS011;2130;48.472;11.934;2023-11-18T00:27:56;9.67;;;2.40;;
4232;SDS011;2130;48.472;11.934;2023-11-18T00:30:25;7.60;;;2.30;;
4232;SDS011;2130;48.472;11.934;2023-11-18T00:32:57;7.63;;;2.20;;
4232;SDS011;2130;48.472;11.934;2023-11-18T00:35:25;8.43;;;2.00;;
4232;SDS011;2130;48.472;11.934;2023-11-18T00:37:54;8.40;;;2.10;;
4232;SDS011;2130;48.472;11.934;2023-11-18T00:40:22;7.27;;;1.87;;
4232;SDS011;2130;48.472;11.934;2023-11-18T00:42:51;8.10;;;2.20;;
4232;SDS011;2130;48.472;11.934;2023-11-18T00:45:21;8.07;;;2.37;;
4232;SDS011;2130;48.472;11.934;2023-11-18T00:47:52;7.80;;;2.27;;
4232;SDS011;2130;48.472;11.934;2023-11-18T00:50:23;8.17;;;1.83;;
4232;SDS011;2130;48.472;11.934;2023-11-18T00:52:52;8.63;;;2.27;;
4232;SDS011;2130;48.472;11.934;2023-11-18T00:55:25;7.50;;;2.10;;
4232;SDS011;2130;48.472;11.934;2023-11-18T00:57:57;7.20;;;1.63;;
4232;SDS011;2130;48.472;11.934;2023-11-18T01:00:27;7.90;;;2.10;;
4232;SDS011;2130;48.472;11.934;2023-11-18T01:03:00;7.50;;;2.00;;
4232;SDS011;2130;48.472;11.934;2023-11-18T01:05:32;7.93;;;2.10;;
4232;SDS011;2130;48.472;11.934;2023-11-18T01:08:01;7.77;;;2.40;;
4232;SDS011;2130;48.472;11.934;2023-11-18T01:10:30;7.20;;;1.90;;
4232;SDS011;2130;48.472;11.934;2023-11-18T01:13:01;7.13;;;1.90;;
4232;SDS011;2130;48.472;11.934;2023-11-18T01:15:30;6.87;;;1.90;;
4232;SDS011;2130;48.472;11.934;2023-11-18T01:18:01;8.00;;;2.10;;
4232;SDS011;2130;48.472;11.934;2023-11-18T01:20:36;10.17;;;1.70;;
4232;SDS011;2130;48.472;11.934;2023-11-18T01:23:05;8.77;;;2.20;;
4232;SDS011;2130;48.472;11.934;2023-11-18T01:25:36;7.97;;;2.33;;
4232;SDS011;2130;48.472;11.934;2023-11-18T01:28:04;8.70;;;2.30;;
4232;SDS011;2130;48.472;11.934;2023-11-18T01:30:35;11.77;;;2.40;;
4232;SDS011;2130;48.472;11.934;2023-11-18T01:33:05;6.73;;;1.50;;
4232;SDS011;2130;48.472;11.934;2023-11-18T01:35:37;7.63;;;1.50;;
4232;SDS011;2130;48.472;11.934;2023-11-18T01:38:06;7.97;;;1.50;;
4232;SDS011;2130;48.472;11.934;2023-11-18T01:40:36;6.10;;;1.20;;
4232;SDS011;2130;48.472;11.934;2023-11-18T01:43:05;6.10;;;0.90;;
4232;SDS011;2130;48.472;11.934;2023-11-18T01:45:38;6.03;;;0.90;;
4232;SDS011;2130;48.472;11.934;2023-11-18T01:48:07;6.07;;;0.90;;
4232;SDS011;2130;48.472;11.934;2023-11-18T01:50:44;7.03;;;1.30;;
4232;SDS011;2130;48.472;11.934;2023-11-18T01:53:15;6.13;;;0.80;;
4232;SDS011;2130;48.472;11.934;2023-11-18T01:55:44;6.43;;;0.90;;
4232;SDS011;2130;48.472;11.934;2023-11-18T01:58:13;6.40;;;0.93;;
4232;SDS011;2130;48.472;11.934;2023-11-18T02:00:48;7.00;;;0.90;;
4232;SDS011;2130;48.472;11.934;2023-11-18T02:03:20;6.23;;;0.80;;
4232;SDS011;2130;48.472;11.934;2023-11-18T02:05:52;6.50;;;1.00;;
4232;SDS011;2130;48.472;11.934;2023-11-18T02:08:21;6.30;;;0.90;;
4232;SDS011;2130;48.472;11.934;2023-11-18T02:10:56;6.73;;;1.07;;
4232;SDS011;2130;48.472;11.934;2023-11-18T02:13:45;7.43;;;1.10;;
4232;SDS011;2130;48.472;11.934;2023-11-18T02:16:17;7.03;;;0.97;;
4232;SDS011;2130;48.472;11.934;2023-11-18T02:18:47;6.00;;;0.80;;
4232;SDS011;2130;48.472;11.934;2023-11-18T02:21:20;6.60;;;1.00;;
4232;SDS011;2130;48.472;11.934;2023-11-18T02:23:50;6.00;;;0.80;;
4232;SDS011;2130;48.472;11.934;2023-11-18T02:26:22;6.63;;;1.13;;
4232;SDS011;2130;48.472;11.934;2023-11-18T02:28:50;7.23;;;1.20;;
4232;SDS011;2130;48.472;11.934;2023-11-18T02:31:22;7.17;;;1.40;;
4232;SDS011;2130;48.472;11.934;2023-11-18T02:33:58;7.67;;;1.50;;
4232;SDS011;2130;48.472;11.934;2023-11-18T02:36:31;7.30;;;1.60;;
4232;SDS011;2130;48.472;11.934;2023-11-18T02:39:04;7.93;;;1.80;;
4232;SDS011;2130;48.472;11.934;2023-11-18T02:41:37;6.70;;;1.50;;
4232;SDS011;2130;48.472;11.934;2023-11-18T02:44:07;6.93;;;1.40;;
4232;SDS011;2130;48.472;11.934;2023-11-18T02:46:37;6.57;;;1.63;;
4232;SDS011;2130;48.472;11.934;2023-11-18T02:49:06;7.60;;;1.93;;
4232;SDS011;2130;48.472;11.934;2023-11-18T02:51:35;7.00;;;1.63;;
4232;SDS011;2130;48.472;11.934;2023-11-18T02:54:06;8.20;;;2.03;;
4232;SDS011;2130;48.472;11.934;2023-11-18T02:56:39;7.67;;;1.70;;
4232;SDS011;2130;48.472;11.934;2023-11-18T02:59:08;8.37;;;1.60;;
4232;SDS011;2130;48.472;11.934;2023-11-18T03:01:37;9.73;;;1.80;;
4232;SDS011;2130;48.472;11.934;2023-11-18T03:04:07;9.13;;;1.80;;
4232;SDS011;2130;48.472;11.934;2023-11-18T03:06:37;7.90;;;2.00;;
4232;SDS011;2130;48.472;11.934;2023-11-18T03:09:07;7.03;;;1.30;;
4232;SDS011;2130;48.472;11.934;2023-11-18T03:11:38;6.83;;;1.53;;
4232;SDS011;2130;48.472;11.934;2023-11-18T03:14:07;8.27;;;1.70;;
4232;SDS011;2130;48.472;11.934;2023-11-18T03:16:37;7.13;;;1.60;;
4232;SDS011;2130;48.472;11.934;2023-11-18T03:19:06;7.30;;;1.50;;
4232;SDS011;2130;48.472;11.934;2023-11-18T03:21:36;7.53;;;1.73;;
4232;SDS011;2130;48.472;11.934;2023-11-18T03:24:06;7.23;;;1.43;;
4232;SDS011;2130;48.472;11.934;2023-11-18T03:26:36;6.33;;;1.10;;
4232;SDS011;2130;48.472;11.934;2023-11-18T03:29:06;6.60;;;1.10;;
4232;SDS011;2130;48.472;11.934;2023-11-18T03:31:37;7.20;;;1.10;;
4232;SDS011;2130;48.472;11.934;2023-11-18T03:34:06;6.70;;;1.10;;
4232;SDS011;2130;48.472;11.934;2023-11-18T03:36:35;6.60;;;1.03;;
4232;SDS011;2130;48.472;11.934;2023-11-18T03:39:04;6.17;;;1.10;;
4232;SDS011;2130;48.472;11.934;2023-11-18T03:41:33;7.30;;;1.30;;
4232;SDS011;2130;48.472;11.934;2023-11-18T03:44:03;5.93;;;0.90;;
4232;SDS011;2130;48.472;11.934;2023-11-18T03:46:33;7.00;;;1.00;;
4232;SDS011;2130;48.472;11.934;2023-11-18T03:49:02;6.20;;;0.90;;
4232;SDS011;2130;48.472;11.934;2023-11-18T03:51:31;7.10;;;1.10;;
4232;SDS011;2130;48.472;11.934;2023-11-18T03:54:00;6.53;;;0.80;;
4232;SDS011;2130;48.472;11.934;2023-11-18T03:56:28;6.03;;;1.10;;
4232;SDS011;2130;48.472;11.934;2023-11-18T03:58:57;6.20;;;0.80;;
4232;SDS011;2130;48.472;11.934;2023-11-18T04:01:26;6.00;;;0.80;;
4232;SDS011;2130;48.472;11.934;2023-11-18T04:03:56;6.00;;;0.90;;
4232;SDS011;2130;48.472;11.934;2023-11-18T04:06:26;6.27;;;0.80;;
4232;SDS011;2130;48.472;11.934;2023-11-18T04:08:55;6.30;;;1.00;;
4232;SDS011;2130;48.472;11.934;2023-11-18T04:11:24;6.50;;;1.10;;
4232;SDS011;2130;48.472;11.934;2023-11-18T04:13:52;6.37;;;1.10;;
4232;SDS011;2130;48.472;11.934;2023-11-18T04:16:21;7.70;;;1.30;;
4232;SDS011;2130;48.472;11.934;2023-11-18T04:18:50;7.17;;;1.40;;
4232;SDS011;2130;48.472;11.934;2023-11-18T04:21:21;7.53;;;1.57;;
4232;SDS011;2130;48.472;11.934;2023-11-18T04:23:50;6.20;;;1.10;;
4232;SDS011;2130;48.472;11.934;2023-11-18T04:26:19;7.60;;;1.77;;
4232;SDS011;2130;48.472;11.934;2023-11-18T04:28:48;6.33;;;1.30;;
4232;SDS011;2130;48.472;11.934;2023-11-18T04:31:16;7.50;;;1.37;;
4232;SDS011;2130;48.472;11.934;2023-11-18T04:33:46;6.73;;;1.30;;
4232;SDS011;2130;48.472;11.934;2023-11-18T04:36:14;6.97;;;1.53;;
4232;SDS011;2130;48.472;11.934;2023-11-18T04:38:45;6.70;;;1.27;;
4232;SDS011;2130;48.472;11.934;2023-11-18T04:41:14;7.07;;;1.57;;
4232;SDS011;2130;48.472;11.934;2023-11-18T04:43:43;6.43;;;1.50;;
4232;SDS011;2130;48.472;11.934;2023-11-18T04:46:13;7.90;;;2.07;;
4232;SDS011;2130;48.472;11.934;2023-11-18T04:48:42;7.67;;;1.60;;
4232;SDS011;2130;48.472;11.934;2023-11-18T04:51:11;7.83;;;1.83;;
4232;SDS011;2130;48.472;11.934;2023-11-18T04:53:39;8.73;;;2.33;;
4232;SDS011;2130;48.472;11.934;2023-11-18T04:56:09;8.33;;;2.30;;
4232;SDS011;2130;48.472;11.934;2023-11-18T04:58:38;7.67;;;1.80;;
4232;SDS011;2130;48.472;11.934;2023-11-18T05:01:07;9.87;;;2.50;;
4232;SDS011;2130;48.472;11.934;2023-11-18T05:03:36;8.60;;;2.50;;
4232;SDS011;2130;48.472;11.934;2023-11-18T05:06:05;7.40;;;2.17;;
4232;SDS011;2130;48.472;11.934;2023-11-18T05:08:35;7.03;;;1.93;;
4232;SDS011;2130;48.472;11.934;2023-11-18T05:11:04;9.70;;;2.00;;
4232;SDS011;2130;48.472;11.934;2023-11-18T05:13:35;7.80;;;2.30;;
4232;SDS011;2130;48.472;11.934;2023-11-18T05:16:05;8.73;;;2.00;;
4232;SDS011;2130;48.472;11.934;2023-11-18T05:18:34;7.57;;;1.97;;
4232;SDS011;2130;48.472;11.934;2023-11-18T05:21:04;16.27;;;2.47;;
4232;SDS011;2130;48.472;11.934;2023-11-18T05:23:33;7.83;;;2.20;;
4232;SDS011;2130;48.472;11.934;2023-11-18T05:26:02;8.83;;;2.40;;
4232;SDS011;2130;48.472;11.934;2023-11-18T05:28:32;10.10;;;2.80;;
4232;SDS011;2130;48.472;11.934;2023-11-18T05:31:02;10.00;;;3.30;;
4232;SDS011;2130;48.472;11.934;2023-11-18T05:33:32;14.60;;;4.17;;
4232;SDS011;2130;48.472;11.934;2023-11-18T05:36:02;9.77;;;2.70;;
4232;SDS011;2130;48.472;11.934;2023-11-18T05:38:33;11.50;;;3.57;;
4232;SDS011;2130;48.472;11.934;2023-11-18T05:41:02;9.37;;;3.00;;
4232;SDS011;2130;48.472;11.934;2023-11-18T05:43:34;10.80;;;2.87;;
4232;SDS011;2130;48.472;11.934;2023-11-18T05:46:08;11.23;;;3.10;;
4232;SDS011;2130;48.472;11.934;2023-11-18T05:48:48;10.80;;;3.27;;
4232;SDS011;2130;48.472;11.934;2023-11-18T05:51:19;10.67;;;3.20;;
4232;SDS011;2130;48.472;11.934;2023-11-18T05:53:49;9.63;;;2.57;;
4232;SDS011;2130;48.472;11.934;2023-11-18T05:56:19;7.03;;;1.57;;
4232;SDS011;2130;48.472;11.934;2023-11-18T05:58:50;7.80;;;1.93;;
4232;SDS011;2130;48.472;11.934;2023-11-18T06:01:22;8.63;;;1.87;;
4232;SDS011;2130;48.472;11.934;2023-11-18T06:03:54;8.80;;;1.90;;
4232;SDS011;2130;48.472;11.934;2023-11-18T06:06:24;8.27;;;2.13;;
4232;SDS011;2130;48.472;11.934;2023-11-18T06:08:53;8.27;;;2.10;;
4232;SDS011;2130;48.472;11.934;2023-11-18T06:11:21;7.53;;;1.93;;
4232;SDS011;2130;48.472;11.934;2023-11-18T06:13:51;7.73;;;2.40;;
4232;SDS011;2130;48.472;11.934;2023-11-18T06:16:22;8.73;;;2.33;;
4232;SDS011;2130;48.472;11.934;2023-11-18T06:18:52;7.03;;;1.70;;
4232;SDS011;2130;48.472;11.934;2023-11-18T06:21:22;7.23;;;1.70;;
4232;SDS011;2130;48.472;11.934;2023-11-18T06:23:55;9.03;;;2.60;;
4232;SDS011;2130;48.472;11.934;2023-11-18T06:26:24;8.90;;;2.43;;
4232;SDS011;2130;48.472;11.934;2023-11-18T06:28:54;7.90;;;2.30;;
4232;SDS011;2130;48.472;11.934;2023-11-18T06:31:25;8.10;;;2.50;;
4232;SDS011;2130;48.472;11.934;2023-11-18T06:33:54;8.23;;;1.97;;
4232;SDS011;2130;48.472;11.934;2023-11-18T06:36:23;8.93;;;2.40;;
4232;SDS011;2130;48.472;11.934;2023-11-18T06:38:53;9.27;;;2.70;;
4232;SDS011;2130;48.472;11.934;2023-11-18T06:41:23;9.60;;;2.20;;
4232;SDS011;2130;48.472;11.934;2023-11-18T06:43:53;8.00;;;2.10;;
4232;SDS011;2130;48.472;11.934;2023-11-18T06:46:29;8.60;;;2.07;;
4232;SDS011;2130;48.472;11.934;2023-11-18T06:49:01;10.60;;;2.73;;
4232;SDS011;2130;48.472;11.934;2023-11-18T06:51:32;8.80;;;2.20;;
4232;SDS011;2130;48.472;11.934;2023-11-18T06:54:05;8.93;;;2.37;;
4232;SDS011;2130;48.472;11.934;2023-11-18T06:56:39;15.27;;;3.53;;
4232;SDS011;2130;48.472;11.934;2023-11-18T06:59:10;11.57;;;3.80;;
4232;SDS011;2130;48.472;11.934;2023-11-18T07:01:42;10.40;;;3.00;;
4232;SDS011;2130;48.472;11.934;2023-11-18T07:04:12;11.40;;;2.80;;
4232;SDS011;2130;48.472;11.934;2023-11-18T07:06:42;9.03;;;2.57;;
4232;SDS011;2130;48.472;11.934;2023-11-18T07:09:11;7.30;;;2.03;;
4232;SDS011;2130;48.472;11.934;2023-11-18T07:11:45;7.13;;;1.77;;
4232;SDS011;2130;48.472;11.934;2023-11-18T07:14:15;8.33;;;2.30;;
4232;SDS011;2130;48.472;11.934;2023-11-18T07:16:46;8.10;;;2.47;;
4232;SDS011;2130;48.472;11.934;2023-11-18T07:19:15;8.53;;;2.10;;
4232;SDS011;2130;48.472;11.934;2023-11-18T07:21:48;7.90;;;2.40;;
4232;SDS011;2130;48.472;11.934;2023-11-18T07:24:18;8.77;;;2.23;;
4232;SDS011;2130;48.472;11.934;2023-11-18T07:26:47;9.20;;;2.60;;
4232;SDS011;2130;48.472;11.934;2023-11-18T07:29:18;8.10;;;1.80;;
4232;SDS011;2130;48.472;11.934;2023-11-18T07:31:48;7.73;;;2.17;;
4232;SDS011;2130;48.472;11.934;2023-11-18T07:34:17;8.63;;;1.93;;
4232;SDS011;2130;48.472;11.934;2023-11-18T07:36:47;7.57;;;1.90;;
4232;SDS011;2130;48.472;11.934;2023-11-18T07:39:15;10.40;;;2.50;;
4232;SDS011;2130;48.472;11.934;2023-11-18T07:41:52;7.30;;;2.00;;
4232;SDS011;2130;48.472;11.934;2023-11-18T07:44:28;8.63;;;2.30;;
4232;SDS011;2130;48.472;11.934;2023-11-18T07:47:01;8.03;;;2.40;;
4232;SDS011;2130;48.472;11.934;2023-11-18T07:49:32;8.70;;;2.47;;
4232;SDS011;2130;48.472;11.934;2023-11-18T07:52:02;8.10;;;2.00;;
4232;SDS011;2130;48.472;11.934;2023-11-18T07:54:33;8.73;;;2.20;;
4232;SDS011;2130;48.472;11.934;2023-11-18T07:57:03;8.53;;;2.00;;
4232;SDS011;2130;48.472;11.934;2023-11-18T07:59:33;11.47;;;3.13;;
4232;SDS011;2130;48.472;11.934;2023-11-18T08:02:04;8.80;;;2.70;;
4232;SDS011;2130;48.472;11.934;2023-11-18T08:04:36;11.00;;;3.07;;
4232;SDS011;2130;48.472;11.934;2023-11-18T08:07:04;9.07;;;2.87;;
4232;SDS011;2130;48.472;11.934;2023-11-18T08:09:34;8.30;;;2.33;;
4232;SDS011;2130;48.472;11.934;2023-11-18T08:12:07;10.63;;;2.47;;
4232;SDS011;2130;48.472;11.934;2023-11-18T08:14:36;11.20;;;2.53;;
4232;SDS011;2130;48.472;11.934;2023-11-18T08:17:06;9.10;;;2.53;;
4232;SDS011;2130;48.472;11.934;2023-11-18T08:19:35;7.37;;;1.60;;
4232;SDS011;2130;48.472;11.934;2023-11-18T08:22:04;7.30;;;1.80;;
4232;SDS011;2130;48.472;11.934;2023-11-18T08:24:36;11.33;;;2.60;;
4232;SDS011;2130;48.472;11.934;2023-11-18T08:27:05;7.53;;;1.80;;
4232;SDS011;2130;48.472;11.934;2023-11-18T08:29:33;8.43;;;1.97;;
4232;SDS011;2130;48.472;11.934;2023-11-18T08:32:02;8.43;;;1.90;;
4232;SDS011;2130;48.472;11.934;2023-11-18T08:34:33;7.60;;;2.20;;
4232;SDS011;2130;48.472;11.934;2023-11-18T08:37:03;7.20;;;2.17;;
4232;SDS011;2130;48.472;11.934;2023-11-18T08:39:32;7.63;;;2.20;;
4232;SDS011;2130;48.472;11.934;2023-11-18T08:42:00;7.10;;;1.97;;
4232;SDS011;2130;48.472;11.934;2023-11-18T08:44:29;7.53;;;1.87;;
4232;SDS011;2130;48.472;11.934;2023-11-18T08:46:59;8.57;;;2.10;;
4232;SDS011;2130;48.472;11.934;2023-11-18T08:49:29;8.17;;;2.10;;
4232;SDS011;2130;48.472;11.934;2023-11-18T08:52:02;7.87;;;2.13;;
4232;SDS011;2130;48.472;11.934;2023-11-18T08:54:36;7.10;;;1.83;;
4232;SDS011;2130;48.472;11.934;2023-11-18T08:57:09;6.93;;;1.77;;
4232;SDS011;2130;48.472;11.934;2023-11-18T08:59:51;7.57;;;2.07;;
4232;SDS011;2130;48.472;11.934;2023-11-18T09:02:20;7.00;;;1.90;;
4232;SDS011;2130;48.472;11.934;2023-11-18T09:04:50;8.70;;;2.47;;
4232;SDS011;2130;48.472;11.934;2023-11-18T09:07:23;7.83;;;1.80;;
4232;SDS011;2130;48.472;11.934;2023-11-18T09:09:53;6.90;;;2.10;;
4232;SDS011;2130;48.472;11.934;2023-11-18T09:12:21;8.40;;;2.60;;
4232;SDS011;2130;48.472;11.934;2023-11-18T09:14:51;7.40;;;2.40;;
4232;SDS011;2130;48.472;11.934;2023-11-18T09:17:20;8.77;;;2.83;;
4232;SDS011;2130;48.472;11.934;2023-11-18T09:19:50;8.43;;;2.53;;
4232;SDS011;2130;48.472;11.934;2023-11-18T09:22:20;6.60;;;1.70;;
4232;SDS011;2130;48.472;11.934;2023-11-18T09:24:51;9.17;;;2.53;;
4232;SDS011;2130;48.472;11.934;2023-11-18T09:27:19;8.63;;;2.57;;
4232;SDS011;2130;48.472;11.934;2023-11-18T09:29:49;6.87;;;1.70;;
4232;SDS011;2130;48.472;11.934;2023-11-18T09:32:18;7.83;;;2.17;;
4232;SDS011;2130;48.472;11.934;2023-11-18T09:34:46;7.77;;;2.03;;
4232;SDS011;2130;48.472;11.934;2023-11-18T09:37:15;6.43;;;1.77;;
4232;SDS011;2130;48.472;11.934;2023-11-18T09:39:45;7.10;;;1.77;;
4232;SDS011;2130;48.472;11.934;2023-11-18T09:42:21;7.87;;;2.07;;
4232;SDS011;2130;48.472;11.934;2023-11-18T09:44:51;7.40;;;2.00;;
4232;SDS011;2130;48.472;11.934;2023-11-18T09:47:20;8.60;;;2.40;;
4232;SDS011;2130;48.472;11.934;2023-11-18T09:49:52;7.50;;;1.90;;
4232;SDS011;2130;48.472;11.934;2023-11-18T09:52:27;6.57;;;1.90;;
4232;SDS011;2130;48.472;11.934;2023-11-18T09:55:03;7.13;;;2.10;;
4232;SDS011;2130;48.472;11.934;2023-11-18T09:57:44;6.73;;;1.80;;
4232;SDS011;2130;48.472;11.934;2023-11-18T10:00:24;6.80;;;1.90;;
4232;SDS011;2130;48.472;11.934;2023-11-18T10:03:00;6.60;;;2.00;;
4232;SDS011;2130;48.472;11.934;2023-11-18T10:05:30;7.90;;;1.93;;
4232;SDS011;2130;48.472;11.934;2023-11-18T10:08:00;9.50;;;2.43;;
4232;SDS011;2130;48.472;11.934;2023-11-18T10:10:33;6.30;;;2.00;;
4232;SDS011;2130;48.472;11.934;2023-11-18T10:13:06;7.10;;;1.97;;
4232;SDS011;2130;48.472;11.934;2023-11-18T10:15:49;8.90;;;2.03;;
4232;SDS011;2130;48.472;11.934;2023-11-18T10:18:19;8.50;;;2.10;;
4232;SDS011;2130;48.472;11.934;2023-11-18T10:20:51;9.23;;;2.50;;
4232;SDS011;2130;48.472;11.934;2023-11-18T10:23:21;7.90;;;1.73;;
4232;SDS011;2130;48.472;11.934;2023-11-18T10:25:55;7.60;;;2.00;;
4232;SDS011;2130;48.472;11.934;2023-11-18T10:28:26;5.93;;;1.70;;
4232;SDS011;2130;48.472;11.934;2023-11-18T10:30:56;5.70;;;1.70;;
4232;SDS011;2130;48.472;11.934;2023-11-18T10:33:26;6.70;;;1.53;;
4232;SDS011;2130;48.472;11.934;2023-11-18T10:35:58;7.20;;;1.80;;
4232;SDS011;2130;48.472;11.934;2023-11-18T10:38:31;5.93;;;1.40;;
4232;SDS011;2130;48.472;11.934;2023-11-18T10:41:04;7.00;;;1.53;;
4232;SDS011;2130;48.472;11.934;2023-11-18T10:43:35;6.30;;;1.57;;
4232;SDS011;2130;48.472;11.934;2023-11-18T10:46:04;5.80;;;1.60;;
4232;SDS011;2130;48.472;11.934;2023-11-18T10:48:39;6.73;;;1.63;;
4232;SDS011;2130;48.472;11.934;2023-11-18T10:51:11;6.00;;;1.30;;
4232;SDS011;2130;48.472;11.934;2023-11-18T10:53:40;6.00;;;1.70;;
4232;SDS011;2130;48.472;11.934;2023-11-18T10:56:20;7.30;;;1.57;;
4232;SDS011;2130;48.472;11.934;2023-11-18T10:58:57;7.03;;;1.80;;
4232;SDS011;2130;48.472;11.934;2023-11-18T11:01:28;7.90;;;2.10;;
4232;SDS011;2130;48.472;11.934;2023-11-18T11:03:59;5.30;;;1.30;;
4232;SDS011;2130;48.472;11.934;2023-11-18T11:06:32;7.30;;;2.00;;
4232;SDS011;2130;48.472;11.934;2023-11-18T11:09:01;9.50;;;1.60;;
4232;SDS011;2130;48.472;11.934;2023-11-18T11:11:39;4.03;;;1.30;;
4232;SDS011;2130;48.472;11.934;2023-11-18T11:14:10;4.50;;;1.30;;
4232;SDS011;2130;48.472;11.934;2023-11-18T11:16:42;4.97;;;1.20;;
4232;SDS011;2130;48.472;11.934;2023-11-18T11:19:16;5.27;;;1.27;;
4232;SDS011;2130;48.472;11.934;2023-11-18T11:21:56;6.60;;;1.60;;
4232;SDS011;2130;48.472;11.934;2023-11-18T11:24:32;5.53;;;1.17;;
4232;SDS011;2130;48.472;11.934;2023-11-18T11:27:09;6.10;;;1.30;;
4232;SDS011;2130;48.472;11.934;2023-11-18T11:29:48;6.17;;;1.40;;
4232;SDS011;2130;48.472;11.934;2023-11-18T11:32:24;5.10;;;1.20;;
4232;SDS011;2130;48.472;11.934;2023-11-18T11:35:01;5.90;;;1.30;;
4232;SDS011;2130;48.472;11.934;2023-11-18T11:37:34;5.50;;;1.00;;
4232;SDS011;2130;48.472;11.934;2023-11-18T11:40:03;6.40;;;1.60;;
4232;SDS011;2130;48.472;11.934;2023-11-18T11:42:36;6.20;;;1.20;;
4232;SDS011;2130;48.472;11.934;2023-11-18T11:45:07;5.80;;;1.30;;
4232;SDS011;2130;48.472;11.934;2023-11-18T11:47:47;5.20;;;1.17;;
4232;SDS011;2130;48.472;11.934;2023-11-18T11:50:18;4.50;;;0.90;;
4232;SDS011;2130;48.472;11.934;2023-11-18T11:52:59;5.63;;;1.00;;
4232;SDS011;2130;48.472;11.934;2023-11-18T11:55:35;4.97;;;1.10;;
4232;SDS011;2130;48.472;11.934;2023-11-18T11:58:25;4.83;;;0.90;;
4232;SDS011;2130;48.472;11.934;2023-11-18T12:00:55;5.70;;;1.00;;
4232;SDS011;2130;48.472;11.934;2023-11-18T12:03:23;6.23;;;1.27;;
4232;SDS011;2130;48.472;11.934;2023-11-18T12:05:54;4.87;;;1.00;;
4232;SDS011;2130;48.472;11.934;2023-11-18T12:08:22;5.30;;;1.10;;
4232;SDS011;2130;48.472;11.934;2023-11-18T12:10:53;5.33;;;1.10;;
4232;SDS011;2130;48.472;11.934;2023-11-18T12:13:24;6.13;;;1.20;;
4232;SDS011;2130;48.472;11.934;2023-11-18T12:15:54;6.70;;;0.93;;
4232;SDS011;2130;48.472;11.934;2023-11-18T12:18:25;5.50;;;1.10;;
4232;SDS011;2130;48.472;11.934;2023-11-18T12:20:53;5.63;;;1.27;;
4232;SDS011;2130;48.472;11.934;2023-11-18T12:23:25;5.57;;;1.13;;
4232;SDS011;2130;48.472;11.934;2023-11-18T12:25:54;5.50;;;0.97;;
4232;SDS011;2130;48.472;11.934;2023-11-18T12:28:25;5.90;;;1.43;;
4232;SDS011;2130;48.472;11.934;2023-11-18T12:31:15;5.70;;;1.20;;
4232;SDS011;2130;48.472;11.934;2023-11-18T12:34:09;5.67;;;1.10;;
4232;SDS011;2130;48.472;11.934;2023-11-18T12:36:52;5.97;;;1.23;;
4232;SDS011;2130;48.472;11.934;2023-11-18T12:39:45;5.87;;;1.00;;
4232;SDS011;2130;48.472;11.934;2023-11-18T12:42:58;5.40;;;0.90;;
4232;SDS011;2130;48.472;11.934;2023-11-18T12:45:41;5.63;;;1.00;;
4232;SDS011;2130;48.472;11.934;2023-11-18T12:48:23;11.03;;;1.00;;
4232;SDS011;2130;48.472;11.934;2023-11-18T12:50:54;5.53;;;0.97;;
4232;SDS011;2130;48.472;11.934;2023-11-18T12:53:25;5.40;;;1.00;;
4232;SDS011;2130;48.472;11.934;2023-11-18T12:55:55;5.33;;;1.00;;
4232;SDS011;2130;48.472;11.934;2023-11-18T12:58:25;5.50;;;1.00;;
4232;SDS011;2130;48.472;11.934;2023-11-18T13:00:55;5.17;;;1.03;;
4232;SDS011;2130;48.472;11.934;2023-11-18T13:03:27;6.80;;;1.67;;
4232;SDS011;2130;48.472;11.934;2023-11-18T13:05:56;7.50;;;1.60;;
4232;SDS011;2130;48.472;11.934;2023-11-18T13:08:24;5.43;;;1.20;;
4232;SDS011;2130;48.472;11.934;2023-11-18T13:10:53;6.53;;;1.60;;
4232;SDS011;2130;48.472;11.934;2023-11-18T13:13:21;5.60;;;1.30;;
4232;SDS011;2130;48.472;11.934;2023-11-18T13:15:50;5.80;;;1.03;;
4232;SDS011;2130;48.472;11.934;2023-11-18T13:18:18;6.60;;;1.57;;
4232;SDS011;2130;48.472;11.934;2023-11-18T13:20:57;5.63;;;1.30;;
4232;SDS011;2130;48.472;11.934;2023-11-18T13:23:25;6.13;;;1.20;;
4232;SDS011;2130;48.472;11.934;2023-11-18T13:25:54;2.63;;;1.08;;
4232;SDS011;2130;48.472;11.934;2023-11-18T13:28:23;4.53;;;1.20;;
4232;SDS011;2130;48.472;11.934;2023-11-18T13:30:51;6.10;;;1.20;;
4232;SDS011;2130;48.472;11.934;2023-11-18T13:33:19;5.87;;;1.53;;
4232;SDS011;2130;48.472;11.934;2023-11-18T13:35:48;5.87;;;1.67;;
4232;SDS011;2130;48.472;11.934;2023-11-18T13:38:19;5.80;;;1.40;;
4232;SDS011;2130;48.472;11.934;2023-11-18T13:40:47;5.30;;;1.27;;
4232;SDS011;2130;48.472;11.934;2023-11-18T13:43:16;5.83;;;1.47;;
4232;SDS011;2130;48.472;11.934;2023-11-18T13:45:49;5.03;;;1.30;;
4232;SDS011;2130;48.472;11.934;2023-11-18T13:48:20;7.03;;;1.80;;
4232;SDS011;2130;48.472;11.934;2023-11-18T13:50:50;5.80;;;1.27;;
4232;SDS011;2130;48.472;11.934;2023-11-18T13:53:21;5.93;;;1.53;;
4232;SDS011;2130;48.472;11.934;2023-11-18T13:55:49;5.97;;;1.33;;
4232;SDS011;2130;48.472;11.934;2023-11-18T13:58:17;5.60;;;1.50;;
4232;SDS011;2130;48.472;11.934;2023-11-18T14:00:46;5.75;;;1.33;;
4232;SDS011;2130;48.472;11.934;2023-11-18T14:03:15;5.83;;;1.50;;
4232;SDS011;2130;48.472;11.934;2023-11-18T14:05:43;5.67;;;1.60;;
4232;SDS011;2130;48.472;11.934;2023-11-18T14:08:16;11.10;;;2.00;;
4232;SDS011;2130;48.472;11.934;2023-11-18T14:10:47;13.10;;;2.10;;
4232;SDS011;2130;48.472;11.934;2023-11-18T14:13:29;7.17;;;1.67;;
4232;SDS011;2130;48.472;11.934;2023-11-18T14:15:57;7.03;;;1.50;;
4232;SDS011;2130;48.472;11.934;2023-11-18T14:18:26;6.33;;;1.50;;
4232;SDS011;2130;48.472;11.934;2023-11-18T14:20:54;7.20;;;1.43;;
4232;SDS011;2130;48.472;11.934;2023-11-18T14:23:23;5.50;;;1.23;;
4232;SDS011;2130;48.472;11.934;2023-11-18T14:25:53;6.23;;;1.50;;
4232;SDS011;2130;48.472;11.934;2023-11-18T14:28:21;5.53;;;1.23;;
4232;SDS011;2130;48.472;11.934;2023-11-18T14:30:52;5.70;;;1.30;;
4232;SDS011;2130;48.472;11.934;2023-11-18T14:33:21;5.10;;;1.10;;
4232;SDS011;2130;48.472;11.934;2023-11-18T14:35:49;6.83;;;1.30;;
4232;SDS011;2130;48.472;11.934;2023-11-18T14:38:17;6.27;;;1.40;;
4232;SDS011;2130;48.472;11.934;2023-11-18T14:40:46;5.50;;;1.20;;
4232;SDS011;2130;48.472;11.934;2023-11-18T14:43:16;5.83;;;1.33;;
4232;SDS011;2130;48.472;11.934;2023-11-18T14:45:45;6.10;;;1.40;;
4232;SDS011;2130;48.472;11.934;2023-11-18T14:48:15;6.27;;;1.33;;
4232;SDS011;2130;48.472;11.934;2023-11-18T14:50:44;6.80;;;1.40;;
4232;SDS011;2130;48.472;11.934;2023-11-18T14:53:12;6.40;;;1.30;;
4232;SDS011;2130;48.472;11.934;2023-11-18T14:55:40;7.00;;;1.37;;
4232;SDS011;2130;48.472;11.934;2023-11-18T14:58:10;5.47;;;1.03;;
4232;SDS011;2130;48.472;11.934;2023-11-18T15:00:41;6.07;;;1.47;;
4232;SDS011;2130;48.472;11.934;2023-11-18T15:03:09;6.87;;;1.73;;
4232;SDS011;2130;48.472;11.934;2023-11-18T15:05:38;8.43;;;1.97;;
4232;SDS011;2130;48.472;11.934;2023-11-18T15:08:06;6.67;;;1.80;;
4232;SDS011;2130;48.472;11.934;2023-11-18T15:10:39;6.40;;;1.57;;
4232;SDS011;2130;48.472;11.934;2023-11-18T15:13:08;6.40;;;1.47;;
4232;SDS011;2130;48.472;11.934;2023-11-18T15:15:43;8.07;;;1.90;;
4232;SDS011;2130;48.472;11.934;2023-11-18T15:18:14;6.43;;;1.57;;
4232;SDS011;2130;48.472;11.934;2023-11-18T15:20:44;8.10;;;1.87;;
4232;SDS011;2130;48.472;11.934;2023-11-18T15:23:15;8.60;;;2.03;;